sensor_id;sensor_type;location;lat;lon;timestamp;P1;durP1;ratioP1;P2;durP2;ratioP2
15327;SDS011;7764;51.430;6.840;2022-12-07T00:00:12;34.80;;;24.00;;
15327;SDS011;7764;51.430;6.840;2022-12-07T00:02:40;31.37;;;23.03;;
15327;SDS011;7764;51.430;6.840;2022-12-07T00:05:07;33.53;;;24.27;;
15327;SDS011;7764;51.430;6.840;2022-12-07T00:07:35;31.27;;;24.03;;
15327;SDS011;7764;51.430;6.840;2022-12-07T00:10:02;31.90;;;24.17;;
15327;SDS011;7764;51.430;6.840;2022-12-07T00:12:29;33.27;;;24.40;;
15327;SDS011;7764;51.430;6.840;2022-12-07T00:14:56;32.50;;;24.53;;
15327;SDS011;7764;51.430;6.840;2022-12-07T00:17:23;32.77;;;25.53;;
15327;SDS011;7764;51.430;6.840;2022-12-07T00:19:50;31.73;;;25.20;;
15327;SDS011;7764;51.430;6.840;2022-12-07T00:22:16;35.73;;;26.60;;
15327;SDS011;7764;51.430;6.840;2022-12-07T00:24:44;33.23;;;24.90;;
15327;SDS011;7764;51.430;6.840;2022-12-07T00:27:11;35.23;;;26.00;;
15327;SDS011;7764;51.430;6.840;2022-12-07T00:29:38;33.33;;;25.93;;
15327;SDS011;7764;51.430;6.840;2022-12-07T00:32:05;33.00;;;25.47;;
15327;SDS011;7764;51.430;6.840;2022-12-07T00:34:32;34.63;;;26.23;;
15327;SDS011;7764;51.430;6.840;2022-12-07T00:36:59;32.67;;;25.80;;
15327;SDS011;7764;51.430;6.840;2022-12-07T00:39:25;33.43;;;25.77;;
15327;SDS011;7764;51.430;6.840;2022-12-07T00:41:54;34.97;;;25.87;;
15327;SDS011;7764;51.430;6.840;2022-12-07T00:44:20;35.43;;;25.83;;
15327;SDS011;7764;51.430;6.840;2022-12-07T00:46:47;34.13;;;26.73;;
15327;SDS011;7764;51.430;6.840;2022-12-07T00:49:14;35.63;;;26.10;;
15327;SDS011;7764;51.430;6.840;2022-12-07T00:51:41;36.97;;;26.87;;
15327;SDS011;7764;51.430;6.840;2022-12-07T00:54:08;37.93;;;27.30;;
15327;SDS011;7764;51.430;6.840;2022-12-07T00:56:34;36.93;;;27.87;;
15327;SDS011;7764;51.430;6.840;2022-12-07T00:59:03;36.20;;;27.73;;
15327;SDS011;7764;51.430;6.840;2022-12-07T01:01:31;36.03;;;26.53;;
15327;SDS011;7764;51.430;6.840;2022-12-07T01:03:59;36.77;;;28.23;;
15327;SDS011;7764;51.430;6.840;2022-12-07T01:06:26;35.27;;;27.67;;
15327;SDS011;7764;51.430;6.840;2022-12-07T01:08:54;38.87;;;27.13;;
15327;SDS011;7764;51.430;6.840;2022-12-07T01:11:22;37.80;;;27.00;;
15327;SDS011;7764;51.430;6.840;2022-12-07T01:13:50;38.63;;;27.23;;
15327;SDS011;7764;51.430;6.840;2022-12-07T01:16:19;37.60;;;27.27;;
15327;SDS011;7764;51.430;6.840;2022-12-07T01:18:46;36.67;;;27.27;;
15327;SDS011;7764;51.430;6.840;2022-12-07T01:21:16;37.33;;;27.73;;
15327;SDS011;7764;51.430;6.840;2022-12-07T01:23:45;38.37;;;26.83;;
15327;SDS011;7764;51.430;6.840;2022-12-07T01:26:13;34.47;;;26.23;;
15327;SDS011;7764;51.430;6.840;2022-12-07T01:28:43;37.27;;;27.67;;
15327;SDS011;7764;51.430;6.840;2022-12-07T01:31:11;38.10;;;27.00;;
15327;SDS011;7764;51.430;6.840;2022-12-07T01:33:42;39.43;;;27.27;;
15327;SDS011;7764;51.430;6.840;2022-12-07T01:36:12;36.07;;;27.83;;
15327;SDS011;7764;51.430;6.840;2022-12-07T01:38:40;36.33;;;26.47;;
15327;SDS011;7764;51.430;6.840;2022-12-07T01:41:07;39.17;;;27.27;;
15327;SDS011;7764;51.430;6.840;2022-12-07T01:43:34;36.57;;;27.17;;
15327;SDS011;7764;51.430;6.840;2022-12-07T01:46:02;38.23;;;27.40;;
15327;SDS011;7764;51.430;6.840;2022-12-07T01:48:31;37.70;;;27.77;;
15327;SDS011;7764;51.430;6.840;2022-12-07T01:51:02;35.30;;;25.47;;
15327;SDS011;7764;51.430;6.840;2022-12-07T01:53:34;37.23;;;26.37;;
15327;SDS011;7764;51.430;6.840;2022-12-07T01:56:04;35.93;;;27.03;;
15327;SDS011;7764;51.430;6.840;2022-12-07T01:58:33;37.40;;;27.57;;
15327;SDS011;7764;51.430;6.840;2022-12-07T02:01:00;37.57;;;28.10;;
15327;SDS011;7764;51.430;6.840;2022-12-07T02:03:29;37.50;;;27.47;;
15327;SDS011;7764;51.430;6.840;2022-12-07T02:05:59;39.30;;;27.77;;
15327;SDS011;7764;51.430;6.840;2022-12-07T02:08:27;39.67;;;28.50;;
15327;SDS011;7764;51.430;6.840;2022-12-07T02:10:54;40.03;;;27.67;;
15327;SDS011;7764;51.430;6.840;2022-12-07T02:13:21;38.80;;;27.93;;
15327;SDS011;7764;51.430;6.840;2022-12-07T02:15:54;34.67;;;26.60;;
15327;SDS011;7764;51.430;6.840;2022-12-07T02:18:38;36.87;;;27.13;;
15327;SDS011;7764;51.430;6.840;2022-12-07T02:21:16;38.10;;;26.40;;
15327;SDS011;7764;51.430;6.840;2022-12-07T02:24:03;42.93;;;27.50;;
15327;SDS011;7764;51.430;6.840;2022-12-07T02:27:07;37.20;;;26.47;;
15327;SDS011;7764;51.430;6.840;2022-12-07T02:29:46;40.40;;;26.57;;
15327;SDS011;7764;51.430;6.840;2022-12-07T02:32:23;36.23;;;27.30;;
15327;SDS011;7764;51.430;6.840;2022-12-07T02:34:55;36.70;;;26.77;;
15327;SDS011;7764;51.430;6.840;2022-12-07T02:37:29;36.50;;;27.43;;
15327;SDS011;7764;51.430;6.840;2022-12-07T02:40:04;36.43;;;26.20;;
15327;SDS011;7764;51.430;6.840;2022-12-07T02:42:36;38.00;;;27.23;;
15327;SDS011;7764;51.430;6.840;2022-12-07T02:45:09;36.90;;;26.73;;
15327;SDS011;7764;51.430;6.840;2022-12-07T02:47:38;37.63;;;27.57;;
15327;SDS011;7764;51.430;6.840;2022-12-07T02:50:07;37.27;;;27.53;;
15327;SDS011;7764;51.430;6.840;2022-12-07T02:52:35;40.63;;;26.60;;
15327;SDS011;7764;51.430;6.840;2022-12-07T02:55:02;37.27;;;26.40;;
15327;SDS011;7764;51.430;6.840;2022-12-07T02:57:34;36.80;;;26.70;;
15327;SDS011;7764;51.430;6.840;2022-12-07T03:00:14;37.90;;;26.10;;
15327;SDS011;7764;51.430;6.840;2022-12-07T03:02:46;36.00;;;26.43;;
15327;SDS011;7764;51.430;6.840;2022-12-07T03:05:22;35.60;;;25.60;;
15327;SDS011;7764;51.430;6.840;2022-12-07T03:07:59;39.30;;;26.90;;
15327;SDS011;7764;51.430;6.840;2022-12-07T03:10:33;43.23;;;26.87;;
15327;SDS011;7764;51.430;6.840;2022-12-07T03:13:07;38.10;;;26.30;;
15327;SDS011;7764;51.430;6.840;2022-12-07T03:15:41;39.43;;;27.47;;
15327;SDS011;7764;51.430;6.840;2022-12-07T03:18:13;36.70;;;27.23;;
15327;SDS011;7764;51.430;6.840;2022-12-07T03:20:44;39.80;;;28.03;;
15327;SDS011;7764;51.430;6.840;2022-12-07T03:23:14;39.40;;;25.63;;
15327;SDS011;7764;51.430;6.840;2022-12-07T03:25:45;37.53;;;27.20;;
15327;SDS011;7764;51.430;6.840;2022-12-07T03:28:16;37.07;;;27.13;;
15327;SDS011;7764;51.430;6.840;2022-12-07T03:30:49;39.10;;;26.97;;
15327;SDS011;7764;51.430;6.840;2022-12-07T03:33:21;37.60;;;25.93;;
15327;SDS011;7764;51.430;6.840;2022-12-07T03:35:54;38.00;;;25.77;;
15327;SDS011;7764;51.430;6.840;2022-12-07T03:38:27;36.13;;;26.27;;
15327;SDS011;7764;51.430;6.840;2022-12-07T03:41:00;38.17;;;24.67;;
15327;SDS011;7764;51.430;6.840;2022-12-07T03:43:31;37.60;;;25.00;;
15327;SDS011;7764;51.430;6.840;2022-12-07T03:46:00;37.73;;;26.03;;
15327;SDS011;7764;51.430;6.840;2022-12-07T03:48:33;41.40;;;25.57;;
15327;SDS011;7764;51.430;6.840;2022-12-07T03:51:08;40.43;;;26.30;;
15327;SDS011;7764;51.430;6.840;2022-12-07T03:53:42;40.60;;;25.90;;
15327;SDS011;7764;51.430;6.840;2022-12-07T03:56:12;35.13;;;24.83;;
15327;SDS011;7764;51.430;6.840;2022-12-07T03:58:40;37.37;;;25.17;;
15327;SDS011;7764;51.430;6.840;2022-12-07T04:01:09;37.90;;;27.30;;
15327;SDS011;7764;51.430;6.840;2022-12-07T04:03:37;34.83;;;25.73;;
15327;SDS011;7764;51.430;6.840;2022-12-07T04:06:04;38.23;;;25.67;;
15327;SDS011;7764;51.430;6.840;2022-12-07T04:08:31;37.20;;;25.47;;
15327;SDS011;7764;51.430;6.840;2022-12-07T04:10:58;42.20;;;26.27;;
15327;SDS011;7764;51.430;6.840;2022-12-07T04:13:25;45.13;;;27.63;;
15327;SDS011;7764;51.430;6.840;2022-12-07T04:15:52;114.83;;;62.13;;
15327;SDS011;7764;51.430;6.840;2022-12-07T04:18:20;40.90;;;26.63;;
15327;SDS011;7764;51.430;6.840;2022-12-07T04:20:47;39.43;;;25.37;;
15327;SDS011;7764;51.430;6.840;2022-12-07T04:23:13;38.53;;;25.03;;
15327;SDS011;7764;51.430;6.840;2022-12-07T04:25:40;40.53;;;25.63;;
15327;SDS011;7764;51.430;6.840;2022-12-07T04:28:07;39.87;;;25.63;;
15327;SDS011;7764;51.430;6.840;2022-12-07T04:30:34;36.77;;;25.57;;
15327;SDS011;7764;51.430;6.840;2022-12-07T04:33:01;36.17;;;23.47;;
15327;SDS011;7764;51.430;6.840;2022-12-07T04:35:29;37.03;;;24.80;;
15327;SDS011;7764;51.430;6.840;2022-12-07T04:37:56;35.67;;;23.70;;
15327;SDS011;7764;51.430;6.840;2022-12-07T04:40:22;35.60;;;24.07;;
15327;SDS011;7764;51.430;6.840;2022-12-07T04:42:49;38.17;;;24.07;;
15327;SDS011;7764;51.430;6.840;2022-12-07T04:45:16;37.10;;;24.83;;
15327;SDS011;7764;51.430;6.840;2022-12-07T04:47:43;38.00;;;24.87;;
15327;SDS011;7764;51.430;6.840;2022-12-07T04:50:10;35.73;;;24.80;;
15327;SDS011;7764;51.430;6.840;2022-12-07T04:52:38;37.00;;;24.33;;
15327;SDS011;7764;51.430;6.840;2022-12-07T04:55:05;42.70;;;26.50;;
15327;SDS011;7764;51.430;6.840;2022-12-07T04:57:32;43.17;;;24.97;;
15327;SDS011;7764;51.430;6.840;2022-12-07T04:59:59;36.00;;;24.17;;
15327;SDS011;7764;51.430;6.840;2022-12-07T05:02:26;36.50;;;24.27;;
15327;SDS011;7764;51.430;6.840;2022-12-07T05:04:53;39.87;;;24.63;;
15327;SDS011;7764;51.430;6.840;2022-12-07T05:07:20;31.83;;;23.23;;
15327;SDS011;7764;51.430;6.840;2022-12-07T05:09:48;43.70;;;25.13;;
15327;SDS011;7764;51.430;6.840;2022-12-07T05:12:15;37.77;;;24.30;;
15327;SDS011;7764;51.430;6.840;2022-12-07T05:14:41;33.47;;;23.07;;
15327;SDS011;7764;51.430;6.840;2022-12-07T05:17:08;37.47;;;24.10;;
15327;SDS011;7764;51.430;6.840;2022-12-07T05:19:36;36.67;;;23.63;;
15327;SDS011;7764;51.430;6.840;2022-12-07T05:22:03;34.77;;;23.30;;
15327;SDS011;7764;51.430;6.840;2022-12-07T05:24:30;34.47;;;22.67;;
15327;SDS011;7764;51.430;6.840;2022-12-07T05:26:58;38.67;;;23.13;;
15327;SDS011;7764;51.430;6.840;2022-12-07T05:29:25;34.40;;;22.27;;
15327;SDS011;7764;51.430;6.840;2022-12-07T05:31:52;32.03;;;21.40;;
15327;SDS011;7764;51.430;6.840;2022-12-07T05:34:19;32.50;;;20.97;;
15327;SDS011;7764;51.430;6.840;2022-12-07T05:36:45;33.93;;;22.00;;
15327;SDS011;7764;51.430;6.840;2022-12-07T05:39:12;32.90;;;20.57;;
15327;SDS011;7764;51.430;6.840;2022-12-07T05:41:40;36.27;;;20.70;;
15327;SDS011;7764;51.430;6.840;2022-12-07T05:44:26;29.33;;;20.17;;
15327;SDS011;7764;51.430;6.840;2022-12-07T05:46:53;30.33;;;19.43;;
15327;SDS011;7764;51.430;6.840;2022-12-07T05:49:20;37.80;;;25.50;;
15327;SDS011;7764;51.430;6.840;2022-12-07T05:51:47;30.47;;;20.07;;
15327;SDS011;7764;51.430;6.840;2022-12-07T05:54:13;36.23;;;21.23;;
15327;SDS011;7764;51.430;6.840;2022-12-07T05:56:40;28.87;;;18.83;;
15327;SDS011;7764;51.430;6.840;2022-12-07T05:59:08;33.33;;;18.93;;
15327;SDS011;7764;51.430;6.840;2022-12-07T06:01:54;33.30;;;19.60;;
15327;SDS011;7764;51.430;6.840;2022-12-07T06:04:22;28.77;;;19.00;;
15327;SDS011;7764;51.430;6.840;2022-12-07T06:06:50;31.37;;;18.57;;
15327;SDS011;7764;51.430;6.840;2022-12-07T06:09:18;32.17;;;18.90;;
15327;SDS011;7764;51.430;6.840;2022-12-07T06:11:46;30.77;;;20.97;;
15327;SDS011;7764;51.430;6.840;2022-12-07T06:14:31;33.23;;;19.87;;
15327;SDS011;7764;51.430;6.840;2022-12-07T06:16:59;29.03;;;18.27;;
15327;SDS011;7764;51.430;6.840;2022-12-07T06:19:26;28.17;;;17.43;;
15327;SDS011;7764;51.430;6.840;2022-12-07T06:21:53;26.87;;;17.03;;
15327;SDS011;7764;51.430;6.840;2022-12-07T06:24:20;30.07;;;17.90;;
15327;SDS011;7764;51.430;6.840;2022-12-07T06:26:47;24.97;;;17.50;;
15327;SDS011;7764;51.430;6.840;2022-12-07T06:29:14;26.53;;;17.43;;
15327;SDS011;7764;51.430;6.840;2022-12-07T06:31:42;29.87;;;19.17;;
15327;SDS011;7764;51.430;6.840;2022-12-07T06:34:11;26.60;;;16.73;;
15327;SDS011;7764;51.430;6.840;2022-12-07T06:36:40;30.53;;;16.93;;
15327;SDS011;7764;51.430;6.840;2022-12-07T06:39:06;25.40;;;16.33;;
15327;SDS011;7764;51.430;6.840;2022-12-07T06:41:34;23.90;;;16.60;;
15327;SDS011;7764;51.430;6.840;2022-12-07T06:44:01;26.20;;;16.80;;
15327;SDS011;7764;51.430;6.840;2022-12-07T06:46:28;27.83;;;16.80;;
15327;SDS011;7764;51.430;6.840;2022-12-07T06:48:55;40.90;;;24.43;;
15327;SDS011;7764;51.430;6.840;2022-12-07T06:51:23;36.77;;;20.23;;
15327;SDS011;7764;51.430;6.840;2022-12-07T06:53:50;29.23;;;16.97;;
15327;SDS011;7764;51.430;6.840;2022-12-07T06:56:17;30.93;;;17.83;;
15327;SDS011;7764;51.430;6.840;2022-12-07T06:58:45;27.17;;;16.20;;
15327;SDS011;7764;51.430;6.840;2022-12-07T07:01:13;30.17;;;15.67;;
15327;SDS011;7764;51.430;6.840;2022-12-07T07:03:40;100.47;;;59.40;;
15327;SDS011;7764;51.430;6.840;2022-12-07T07:06:08;34.20;;;19.00;;
15327;SDS011;7764;51.430;6.840;2022-12-07T07:08:36;31.87;;;17.40;;
15327;SDS011;7764;51.430;6.840;2022-12-07T07:11:04;25.90;;;16.90;;
15327;SDS011;7764;51.430;6.840;2022-12-07T07:13:32;32.47;;;18.83;;
15327;SDS011;7764;51.430;6.840;2022-12-07T07:15:59;29.07;;;18.33;;
15327;SDS011;7764;51.430;6.840;2022-12-07T07:18:26;28.73;;;18.43;;
15327;SDS011;7764;51.430;6.840;2022-12-07T07:20:53;27.03;;;16.93;;
15327;SDS011;7764;51.430;6.840;2022-12-07T07:23:20;26.83;;;17.13;;
15327;SDS011;7764;51.430;6.840;2022-12-07T07:25:49;28.33;;;17.07;;
15327;SDS011;7764;51.430;6.840;2022-12-07T07:28:16;29.57;;;17.53;;
15327;SDS011;7764;51.430;6.840;2022-12-07T07:30:43;29.17;;;17.63;;
15327;SDS011;7764;51.430;6.840;2022-12-07T07:33:10;28.70;;;18.00;;
15327;SDS011;7764;51.430;6.840;2022-12-07T07:35:37;30.37;;;17.80;;
15327;SDS011;7764;51.430;6.840;2022-12-07T07:38:05;32.30;;;19.33;;
15327;SDS011;7764;51.430;6.840;2022-12-07T07:40:32;28.13;;;18.17;;
15327;SDS011;7764;51.430;6.840;2022-12-07T07:43:00;25.97;;;16.40;;
15327;SDS011;7764;51.430;6.840;2022-12-07T07:45:27;27.43;;;15.80;;
15327;SDS011;7764;51.430;6.840;2022-12-07T07:47:55;25.53;;;16.13;;
15327;SDS011;7764;51.430;6.840;2022-12-07T07:50:22;46.70;;;30.80;;
15327;SDS011;7764;51.430;6.840;2022-12-07T07:52:48;27.07;;;16.40;;
15327;SDS011;7764;51.430;6.840;2022-12-07T07:55:15;32.50;;;17.40;;
15327;SDS011;7764;51.430;6.840;2022-12-07T07:57:42;28.67;;;17.10;;
15327;SDS011;7764;51.430;6.840;2022-12-07T08:00:12;26.90;;;17.80;;
15327;SDS011;7764;51.430;6.840;2022-12-07T08:02:40;28.70;;;16.97;;
15327;SDS011;7764;51.430;6.840;2022-12-07T08:05:08;22.70;;;16.90;;
15327;SDS011;7764;51.430;6.840;2022-12-07T08:07:35;25.23;;;16.70;;
15327;SDS011;7764;51.430;6.840;2022-12-07T08:10:02;27.10;;;17.90;;
15327;SDS011;7764;51.430;6.840;2022-12-07T08:12:30;28.90;;;18.90;;
15327;SDS011;7764;51.430;6.840;2022-12-07T08:14:56;28.37;;;17.87;;
15327;SDS011;7764;51.430;6.840;2022-12-07T08:17:25;24.00;;;16.30;;
15327;SDS011;7764;51.430;6.840;2022-12-07T08:19:52;24.93;;;17.07;;
15327;SDS011;7764;51.430;6.840;2022-12-07T08:22:18;25.10;;;15.77;;
15327;SDS011;7764;51.430;6.840;2022-12-07T08:24:45;27.50;;;17.10;;
15327;SDS011;7764;51.430;6.840;2022-12-07T08:27:12;25.00;;;16.37;;
15327;SDS011;7764;51.430;6.840;2022-12-07T08:29:39;27.93;;;16.40;;
15327;SDS011;7764;51.430;6.840;2022-12-07T08:32:06;22.87;;;14.70;;
15327;SDS011;7764;51.430;6.840;2022-12-07T08:34:34;24.43;;;15.83;;
15327;SDS011;7764;51.430;6.840;2022-12-07T08:37:01;31.30;;;17.33;;
15327;SDS011;7764;51.430;6.840;2022-12-07T08:39:29;22.37;;;15.60;;
15327;SDS011;7764;51.430;6.840;2022-12-07T08:41:55;24.90;;;16.03;;
15327;SDS011;7764;51.430;6.840;2022-12-07T08:44:22;26.23;;;16.53;;
15327;SDS011;7764;51.430;6.840;2022-12-07T08:46:49;27.43;;;17.83;;
15327;SDS011;7764;51.430;6.840;2022-12-07T08:49:20;25.13;;;16.00;;
15327;SDS011;7764;51.430;6.840;2022-12-07T08:51:52;30.40;;;16.13;;
15327;SDS011;7764;51.430;6.840;2022-12-07T08:54:20;23.83;;;15.27;;
15327;SDS011;7764;51.430;6.840;2022-12-07T08:56:47;23.07;;;14.30;;
15327;SDS011;7764;51.430;6.840;2022-12-07T08:59:16;23.37;;;15.07;;
15327;SDS011;7764;51.430;6.840;2022-12-07T09:01:45;25.63;;;15.47;;
15327;SDS011;7764;51.430;6.840;2022-12-07T09:04:12;22.67;;;14.67;;
15327;SDS011;7764;51.430;6.840;2022-12-07T09:06:40;18.83;;;13.23;;
15327;SDS011;7764;51.430;6.840;2022-12-07T09:09:09;22.33;;;14.30;;
15327;SDS011;7764;51.430;6.840;2022-12-07T09:11:37;24.47;;;14.57;;
15327;SDS011;7764;51.430;6.840;2022-12-07T09:14:04;22.13;;;14.17;;
15327;SDS011;7764;51.430;6.840;2022-12-07T09:16:31;20.63;;;13.73;;
15327;SDS011;7764;51.430;6.840;2022-12-07T09:18:58;21.43;;;13.50;;
15327;SDS011;7764;51.430;6.840;2022-12-07T09:21:25;19.13;;;13.07;;
15327;SDS011;7764;51.430;6.840;2022-12-07T09:23:51;23.90;;;14.07;;
15327;SDS011;7764;51.430;6.840;2022-12-07T09:26:20;22.40;;;13.63;;
15327;SDS011;7764;51.430;6.840;2022-12-07T09:28:46;18.00;;;12.50;;
15327;SDS011;7764;51.430;6.840;2022-12-07T09:31:13;23.47;;;12.60;;
15327;SDS011;7764;51.430;6.840;2022-12-07T09:33:40;22.10;;;12.60;;
15327;SDS011;7764;51.430;6.840;2022-12-07T09:36:07;26.63;;;13.53;;
15327;SDS011;7764;51.430;6.840;2022-12-07T09:38:35;17.93;;;11.57;;
15327;SDS011;7764;51.430;6.840;2022-12-07T09:41:03;24.53;;;13.43;;
15327;SDS011;7764;51.430;6.840;2022-12-07T09:43:33;17.23;;;11.97;;
15327;SDS011;7764;51.430;6.840;2022-12-07T09:46:02;17.17;;;11.77;;
15327;SDS011;7764;51.430;6.840;2022-12-07T09:48:32;24.83;;;13.67;;
15327;SDS011;7764;51.430;6.840;2022-12-07T09:51:01;18.27;;;11.20;;
15327;SDS011;7764;51.430;6.840;2022-12-07T09:53:37;20.17;;;11.53;;
15327;SDS011;7764;51.430;6.840;2022-12-07T09:56:05;19.43;;;11.13;;
15327;SDS011;7764;51.430;6.840;2022-12-07T09:58:33;31.40;;;10.90;;
15327;SDS011;7764;51.430;6.840;2022-12-07T10:01:01;25.57;;;11.60;;
15327;SDS011;7764;51.430;6.840;2022-12-07T10:03:37;18.17;;;11.10;;
15327;SDS011;7764;51.430;6.840;2022-12-07T10:06:05;21.93;;;10.73;;
15327;SDS011;7764;51.430;6.840;2022-12-07T10:08:33;23.17;;;10.60;;
15327;SDS011;7764;51.430;6.840;2022-12-07T10:11:01;16.47;;;10.13;;
15327;SDS011;7764;51.430;6.840;2022-12-07T10:13:35;17.47;;;9.97;;
15327;SDS011;7764;51.430;6.840;2022-12-07T10:16:03;20.07;;;12.03;;
15327;SDS011;7764;51.430;6.840;2022-12-07T10:18:32;47.97;;;26.63;;
15327;SDS011;7764;51.430;6.840;2022-12-07T10:21:02;17.00;;;10.33;;
15327;SDS011;7764;51.430;6.840;2022-12-07T10:23:37;17.67;;;10.50;;
15327;SDS011;7764;51.430;6.840;2022-12-07T10:26:21;15.53;;;8.23;;
15327;SDS011;7764;51.430;6.840;2022-12-07T10:28:56;16.60;;;8.10;;
15327;SDS011;7764;51.430;6.840;2022-12-07T10:31:26;16.67;;;8.57;;
15327;SDS011;7764;51.430;6.840;2022-12-07T10:33:54;20.43;;;8.73;;
15327;SDS011;7764;51.430;6.840;2022-12-07T10:36:23;14.60;;;7.60;;
15327;SDS011;7764;51.430;6.840;2022-12-07T10:38:52;14.73;;;7.67;;
15327;SDS011;7764;51.430;6.840;2022-12-07T10:41:25;15.63;;;7.77;;
15327;SDS011;7764;51.430;6.840;2022-12-07T10:43:53;15.60;;;7.70;;
15327;SDS011;7764;51.430;6.840;2022-12-07T10:46:29;20.27;;;11.00;;
15327;SDS011;7764;51.430;6.840;2022-12-07T10:49:24;15.87;;;8.60;;
15327;SDS011;7764;51.430;6.840;2022-12-07T10:52:04;16.87;;;7.77;;
15327;SDS011;7764;51.430;6.840;2022-12-07T10:54:39;21.43;;;8.33;;
15327;SDS011;7764;51.430;6.840;2022-12-07T10:57:17;12.93;;;8.80;;
15327;SDS011;7764;51.430;6.840;2022-12-07T10:59:53;14.83;;;7.93;;
15327;SDS011;7764;51.430;6.840;2022-12-07T11:05:33;13.33;;;7.03;;
15327;SDS011;7764;51.430;6.840;2022-12-07T11:08:09;13.17;;;7.50;;
15327;SDS011;7764;51.430;6.840;2022-12-07T11:10:47;14.73;;;7.13;;
15327;SDS011;7764;51.430;6.840;2022-12-07T11:13:23;15.87;;;7.20;;
15327;SDS011;7764;51.430;6.840;2022-12-07T11:15:59;14.57;;;7.63;;
15327;SDS011;7764;51.430;6.840;2022-12-07T11:18:42;15.70;;;7.60;;
15327;SDS011;7764;51.430;6.840;2022-12-07T11:21:19;11.13;;;6.87;;
15327;SDS011;7764;51.430;6.840;2022-12-07T11:23:52;15.47;;;7.87;;
15327;SDS011;7764;51.430;6.840;2022-12-07T11:26:32;14.47;;;7.10;;
15327;SDS011;7764;51.430;6.840;2022-12-07T11:29:13;17.70;;;8.03;;
15327;SDS011;7764;51.430;6.840;2022-12-07T11:31:50;22.20;;;7.33;;
15327;SDS011;7764;51.430;6.840;2022-12-07T11:34:25;10.60;;;6.17;;
15327;SDS011;7764;51.430;6.840;2022-12-07T11:37:05;14.27;;;6.57;;
15327;SDS011;7764;51.430;6.840;2022-12-07T11:39:39;13.57;;;6.50;;
15327;SDS011;7764;51.430;6.840;2022-12-07T11:42:13;13.57;;;6.90;;
15327;SDS011;7764;51.430;6.840;2022-12-07T11:44:45;15.53;;;7.57;;
15327;SDS011;7764;51.430;6.840;2022-12-07T11:47:20;14.60;;;6.77;;
15327;SDS011;7764;51.430;6.840;2022-12-07T11:49:53;14.00;;;6.40;;
15327;SDS011;7764;51.430;6.840;2022-12-07T11:52:27;10.30;;;5.90;;
15327;SDS011;7764;51.430;6.840;2022-12-07T11:54:58;18.10;;;7.27;;
15327;SDS011;7764;51.430;6.840;2022-12-07T11:57:30;12.20;;;6.10;;
15327;SDS011;7764;51.430;6.840;2022-12-07T12:00:04;29.87;;;7.10;;
15327;SDS011;7764;51.430;6.840;2022-12-07T12:02:41;11.00;;;5.37;;
15327;SDS011;7764;51.430;6.840;2022-12-07T12:05:16;13.83;;;6.03;;
15327;SDS011;7764;51.430;6.840;2022-12-07T12:07:48;10.70;;;5.63;;
15327;SDS011;7764;51.430;6.840;2022-12-07T12:10:22;21.00;;;6.90;;
15327;SDS011;7764;51.430;6.840;2022-12-07T12:13:02;10.63;;;5.10;;
15327;SDS011;7764;51.430;6.840;2022-12-07T12:15:42;16.07;;;5.83;;
15327;SDS011;7764;51.430;6.840;2022-12-07T12:18:40;11.27;;;6.00;;
15327;SDS011;7764;51.430;6.840;2022-12-07T12:21:18;12.90;;;6.03;;
15327;SDS011;7764;51.430;6.840;2022-12-07T12:23:51;9.57;;;5.30;;
15327;SDS011;7764;51.430;6.840;2022-12-07T12:26:24;19.63;;;8.70;;
15327;SDS011;7764;51.430;6.840;2022-12-07T12:28:54;16.43;;;6.53;;
15327;SDS011;7764;51.430;6.840;2022-12-07T12:31:34;28.57;;;10.87;;
15327;SDS011;7764;51.430;6.840;2022-12-07T12:34:10;13.93;;;6.47;;
15327;SDS011;7764;51.430;6.840;2022-12-07T12:37:07;14.83;;;6.63;;
15327;SDS011;7764;51.430;6.840;2022-12-07T12:42:57;12.13;;;5.90;;
15327;SDS011;7764;51.430;6.840;2022-12-07T12:45:24;15.53;;;6.60;;
15327;SDS011;7764;51.430;6.840;2022-12-07T12:47:57;15.33;;;8.67;;
15327;SDS011;7764;51.430;6.840;2022-12-07T12:50:25;13.50;;;6.27;;
15327;SDS011;7764;51.430;6.840;2022-12-07T12:52:58;13.03;;;5.50;;
15327;SDS011;7764;51.430;6.840;2022-12-07T12:58:51;13.20;;;5.73;;
15327;SDS011;7764;51.430;6.840;2022-12-07T13:01:48;12.70;;;5.50;;
15327;SDS011;7764;51.430;6.840;2022-12-07T13:04:30;10.20;;;6.13;;
15327;SDS011;7764;51.430;6.840;2022-12-07T13:10:20;8.90;;;4.53;;
15327;SDS011;7764;51.430;6.840;2022-12-07T13:12:56;13.63;;;4.87;;
15327;SDS011;7764;51.430;6.840;2022-12-07T13:18:23;9.80;;;4.90;;
15327;SDS011;7764;51.430;6.840;2022-12-07T13:20:52;10.90;;;4.73;;
15327;SDS011;7764;51.430;6.840;2022-12-07T13:23:21;11.73;;;5.00;;
15327;SDS011;7764;51.430;6.840;2022-12-07T13:25:54;10.03;;;4.90;;
15327;SDS011;7764;51.430;6.840;2022-12-07T13:28:27;14.00;;;5.20;;
15327;SDS011;7764;51.430;6.840;2022-12-07T13:31:09;15.33;;;5.67;;
15327;SDS011;7764;51.430;6.840;2022-12-07T13:33:46;7.57;;;4.43;;
15327;SDS011;7764;51.430;6.840;2022-12-07T13:36:16;12.70;;;5.60;;
15327;SDS011;7764;51.430;6.840;2022-12-07T13:38:51;16.37;;;7.03;;
15327;SDS011;7764;51.430;6.840;2022-12-07T13:41:20;22.87;;;7.13;;
15327;SDS011;7764;51.430;6.840;2022-12-07T13:43:49;13.17;;;5.50;;
15327;SDS011;7764;51.430;6.840;2022-12-07T13:46:20;13.80;;;5.60;;
15327;SDS011;7764;51.430;6.840;2022-12-07T13:48:55;44.00;;;25.53;;
15327;SDS011;7764;51.430;6.840;2022-12-07T13:51:23;15.17;;;7.03;;
15327;SDS011;7764;51.430;6.840;2022-12-07T13:53:52;16.23;;;6.83;;
15327;SDS011;7764;51.430;6.840;2022-12-07T13:56:22;16.03;;;5.93;;
15327;SDS011;7764;51.430;6.840;2022-12-07T13:58:52;18.90;;;6.67;;
15327;SDS011;7764;51.430;6.840;2022-12-07T14:01:22;15.13;;;7.70;;
15327;SDS011;7764;51.430;6.840;2022-12-07T14:03:50;21.27;;;10.87;;
15327;SDS011;7764;51.430;6.840;2022-12-07T14:06:22;16.20;;;6.77;;
15327;SDS011;7764;51.430;6.840;2022-12-07T14:09:07;18.13;;;6.87;;
15327;SDS011;7764;51.430;6.840;2022-12-07T14:11:35;18.40;;;8.23;;
15327;SDS011;7764;51.430;6.840;2022-12-07T14:14:02;16.40;;;7.13;;
15327;SDS011;7764;51.430;6.840;2022-12-07T14:16:31;11.23;;;5.10;;
15327;SDS011;7764;51.430;6.840;2022-12-07T14:19:00;20.83;;;7.97;;
15327;SDS011;7764;51.430;6.840;2022-12-07T14:21:29;13.50;;;5.20;;
15327;SDS011;7764;51.430;6.840;2022-12-07T14:24:08;10.97;;;4.47;;
15327;SDS011;7764;51.430;6.840;2022-12-07T14:26:38;13.20;;;5.80;;
15327;SDS011;7764;51.430;6.840;2022-12-07T14:32:15;10.87;;;5.00;;
15327;SDS011;7764;51.430;6.840;2022-12-07T14:34:59;13.77;;;4.80;;
15327;SDS011;7764;51.430;6.840;2022-12-07T14:37:28;14.13;;;4.63;;
15327;SDS011;7764;51.430;6.840;2022-12-07T14:39:56;16.53;;;4.67;;
15327;SDS011;7764;51.430;6.840;2022-12-07T14:42:24;14.23;;;4.60;;
15327;SDS011;7764;51.430;6.840;2022-12-07T14:44:54;29.23;;;13.07;;
15327;SDS011;7764;51.430;6.840;2022-12-07T14:47:23;11.87;;;4.83;;
15327;SDS011;7764;51.430;6.840;2022-12-07T14:49:51;10.57;;;4.63;;
15327;SDS011;7764;51.430;6.840;2022-12-07T14:52:19;10.33;;;4.40;;
15327;SDS011;7764;51.430;6.840;2022-12-07T14:54:49;14.67;;;4.90;;
15327;SDS011;7764;51.430;6.840;2022-12-07T14:57:16;11.17;;;5.67;;
15327;SDS011;7764;51.430;6.840;2022-12-07T14:59:43;13.73;;;5.00;;
15327;SDS011;7764;51.430;6.840;2022-12-07T15:02:10;13.97;;;5.37;;
15327;SDS011;7764;51.430;6.840;2022-12-07T15:04:42;12.03;;;5.00;;
15327;SDS011;7764;51.430;6.840;2022-12-07T15:07:10;15.00;;;5.80;;
15327;SDS011;7764;51.430;6.840;2022-12-07T15:09:42;21.03;;;6.37;;
15327;SDS011;7764;51.430;6.840;2022-12-07T15:12:09;14.23;;;6.07;;
15327;SDS011;7764;51.430;6.840;2022-12-07T15:14:36;14.63;;;6.23;;